sensor_id;sensor_type;location;lat;lon;timestamp;temperature;humidity
4308;DHT22;2167;53.448;9.984;2022-12-20T00:00:04;7.50;28.60
4308;DHT22;2167;53.448;9.984;2022-12-20T00:02:30;7.50;28.60
4308;DHT22;2167;53.448;9.984;2022-12-20T00:04:55;7.40;28.60
4308;DHT22;2167;53.448;9.984;2022-12-20T00:07:21;7.40;28.70
4308;DHT22;2167;53.448;9.984;2022-12-20T00:09:47;7.40;28.80
4308;DHT22;2167;53.448;9.984;2022-12-20T00:12:12;7.50;28.90
4308;DHT22;2167;53.448;9.984;2022-12-20T00:14:38;7.40;28.80
4308;DHT22;2167;53.448;9.984;2022-12-20T00:17:04;7.40;28.90
4308;DHT22;2167;53.448;9.984;2022-12-20T00:19:29;7.40;29.20
4308;DHT22;2167;53.448;9.984;2022-12-20T00:21:55;7.40;29.30
4308;DHT22;2167;53.448;9.984;2022-12-20T00:24:20;7.40;29.20
4308;DHT22;2167;53.448;9.984;2022-12-20T00:26:46;7.50;29.30
4308;DHT22;2167;53.448;9.984;2022-12-20T00:29:12;7.50;29.30
4308;DHT22;2167;53.448;9.984;2022-12-20T00:31:38;7.60;29.10
4308;DHT22;2167;53.448;9.984;2022-12-20T00:34:04;7.50;29.10
4308;DHT22;2167;53.448;9.984;2022-12-20T00:36:31;7.60;29.20
4308;DHT22;2167;53.448;9.984;2022-12-20T00:38:58;7.50;29.10
4308;DHT22;2167;53.448;9.984;2022-12-20T00:41:27;7.60;29.10
4308;DHT22;2167;53.448;9.984;2022-12-20T00:43:54;7.60;29.20
4308;DHT22;2167;53.448;9.984;2022-12-20T00:46:20;7.60;29.30
4308;DHT22;2167;53.448;9.984;2022-12-20T00:48:49;7.60;29.40
4308;DHT22;2167;53.448;9.984;2022-12-20T00:51:17;7.60;29.60
4308;DHT22;2167;53.448;9.984;2022-12-20T00:53:44;7.50;29.60
4308;DHT22;2167;53.448;9.984;2022-12-20T00:56:10;7.60;29.60
4308;DHT22;2167;53.448;9.984;2022-12-20T00:58:38;7.60;29.50
4308;DHT22;2167;53.448;9.984;2022-12-20T01:01:06;7.50;29.60
4308;DHT22;2167;53.448;9.984;2022-12-20T01:03:32;7.60;29.70
4308;DHT22;2167;53.448;9.984;2022-12-20T01:05:59;7.60;29.70
4308;DHT22;2167;53.448;9.984;2022-12-20T01:08:27;7.60;29.70
4308;DHT22;2167;53.448;9.984;2022-12-20T01:11:12;7.60;29.90
4308;DHT22;2167;53.448;9.984;2022-12-20T01:13:42;7.60;30.00
4308;DHT22;2167;53.448;9.984;2022-12-20T01:16:15;7.70;30.20
4308;DHT22;2167;53.448;9.984;2022-12-20T01:18:41;7.70;30.40
4308;DHT22;2167;53.448;9.984;2022-12-20T01:21:09;7.70;30.80
4308;DHT22;2167;53.448;9.984;2022-12-20T01:23:35;7.70;31.00
4308;DHT22;2167;53.448;9.984;2022-12-20T01:26:02;7.70;30.90
4308;DHT22;2167;53.448;9.984;2022-12-20T01:28:29;7.70;31.00
4308;DHT22;2167;53.448;9.984;2022-12-20T01:30:55;7.80;30.90
4308;DHT22;2167;53.448;9.984;2022-12-20T01:33:21;7.80;30.90
4308;DHT22;2167;53.448;9.984;2022-12-20T01:36:04;7.80;30.90
4308;DHT22;2167;53.448;9.984;2022-12-20T01:38:30;7.90;31.00
4308;DHT22;2167;53.448;9.984;2022-12-20T01:40:56;7.90;31.00
4308;DHT22;2167;53.448;9.984;2022-12-20T01:43:23;7.90;31.10
4308;DHT22;2167;53.448;9.984;2022-12-20T01:45:50;8.00;31.30
4308;DHT22;2167;53.448;9.984;2022-12-20T01:48:21;8.00;31.40
4308;DHT22;2167;53.448;9.984;2022-12-20T01:50:50;8.00;31.50
4308;DHT22;2167;53.448;9.984;2022-12-20T01:53:17;8.00;31.40
4308;DHT22;2167;53.448;9.984;2022-12-20T01:55:44;8.10;31.40
4308;DHT22;2167;53.448;9.984;2022-12-20T01:58:13;8.10;31.40
4308;DHT22;2167;53.448;9.984;2022-12-20T02:00:41;8.10;31.20
4308;DHT22;2167;53.448;9.984;2022-12-20T02:03:09;8.20;31.30
4308;DHT22;2167;53.448;9.984;2022-12-20T02:05:38;8.10;31.70
4308;DHT22;2167;53.448;9.984;2022-12-20T02:08:05;8.20;31.70
4308;DHT22;2167;53.448;9.984;2022-12-20T02:13:19;8.30;32.40
4308;DHT22;2167;53.448;9.984;2022-12-20T02:15:54;8.40;32.90
4308;DHT22;2167;53.448;9.984;2022-12-20T02:18:56;8.40;32.80
4308;DHT22;2167;53.448;9.984;2022-12-20T02:21:49;8.50;32.80
4308;DHT22;2167;53.448;9.984;2022-12-20T02:25:04;8.50;32.30
4308;DHT22;2167;53.448;9.984;2022-12-20T02:28:03;8.60;31.70
4308;DHT22;2167;53.448;9.984;2022-12-20T02:30:37;8.70;31.90
4308;DHT22;2167;53.448;9.984;2022-12-20T02:33:07;8.70;31.80
4308;DHT22;2167;53.448;9.984;2022-12-20T02:35:36;8.70;32.10
4308;DHT22;2167;53.448;9.984;2022-12-20T02:38:28;8.70;32.00
4308;DHT22;2167;53.448;9.984;2022-12-20T02:43:32;8.90;31.40
4308;DHT22;2167;53.448;9.984;2022-12-20T02:46:18;8.90;31.50
4308;DHT22;2167;53.448;9.984;2022-12-20T02:48:46;9.00;31.20
4308;DHT22;2167;53.448;9.984;2022-12-20T02:51:14;9.00;30.80
4308;DHT22;2167;53.448;9.984;2022-12-20T02:53:41;9.00;30.90
4308;DHT22;2167;53.448;9.984;2022-12-20T02:56:11;9.00;31.20
4308;DHT22;2167;53.448;9.984;2022-12-20T02:58:46;9.00;31.00
4308;DHT22;2167;53.448;9.984;2022-12-20T03:01:29;9.10;31.00
4308;DHT22;2167;53.448;9.984;2022-12-20T03:03:57;9.10;30.80
4308;DHT22;2167;53.448;9.984;2022-12-20T03:06:22;9.10;31.00
4308;DHT22;2167;53.448;9.984;2022-12-20T03:08:48;9.10;30.90
4308;DHT22;2167;53.448;9.984;2022-12-20T03:11:14;9.20;30.80
4308;DHT22;2167;53.448;9.984;2022-12-20T03:13:39;9.20;30.70
4308;DHT22;2167;53.448;9.984;2022-12-20T03:16:06;9.20;30.70
4308;DHT22;2167;53.448;9.984;2022-12-20T03:18:32;9.20;30.50
4308;DHT22;2167;53.448;9.984;2022-12-20T03:20:57;9.20;30.70
4308;DHT22;2167;53.448;9.984;2022-12-20T03:23:23;9.20;30.70
4308;DHT22;2167;53.448;9.984;2022-12-20T03:25:51;9.30;30.50
4308;DHT22;2167;53.448;9.984;2022-12-20T03:28:17;9.30;30.50
4308;DHT22;2167;53.448;9.984;2022-12-20T03:30:43;9.30;30.50
4308;DHT22;2167;53.448;9.984;2022-12-20T03:33:08;9.30;30.50
4308;DHT22;2167;53.448;9.984;2022-12-20T03:35:34;9.30;30.40
4308;DHT22;2167;53.448;9.984;2022-12-20T03:38:00;9.30;30.50
4308;DHT22;2167;53.448;9.984;2022-12-20T03:40:25;9.30;30.30
4308;DHT22;2167;53.448;9.984;2022-12-20T03:42:51;9.20;30.30
4308;DHT22;2167;53.448;9.984;2022-12-20T03:45:16;9.20;30.20
4308;DHT22;2167;53.448;9.984;2022-12-20T03:47:44;9.30;30.10
4308;DHT22;2167;53.448;9.984;2022-12-20T03:50:09;9.30;30.00
4308;DHT22;2167;53.448;9.984;2022-12-20T03:52:35;9.20;29.80
4308;DHT22;2167;53.448;9.984;2022-12-20T03:55:01;9.20;29.80
4308;DHT22;2167;53.448;9.984;2022-12-20T03:57:28;9.20;29.70
4308;DHT22;2167;53.448;9.984;2022-12-20T03:59:53;9.20;29.70
4308;DHT22;2167;53.448;9.984;2022-12-20T04:02:19;9.20;29.80
4308;DHT22;2167;53.448;9.984;2022-12-20T04:04:46;9.20;29.90
4308;DHT22;2167;53.448;9.984;2022-12-20T04:07:11;9.10;30.00
4308;DHT22;2167;53.448;9.984;2022-12-20T04:09:37;9.10;30.10
4308;DHT22;2167;53.448;9.984;2022-12-20T04:12:02;9.10;30.20
4308;DHT22;2167;53.448;9.984;2022-12-20T04:14:28;9.10;30.00
4308;DHT22;2167;53.448;9.984;2022-12-20T04:16:54;9.10;30.00
4308;DHT22;2167;53.448;9.984;2022-12-20T04:19:19;9.10;30.20
4308;DHT22;2167;53.448;9.984;2022-12-20T04:21:45;9.10;30.30
4308;DHT22;2167;53.448;9.984;2022-12-20T04:24:10;9.10;30.50
4308;DHT22;2167;53.448;9.984;2022-12-20T04:26:36;9.00;30.70
4308;DHT22;2167;53.448;9.984;2022-12-20T04:29:02;9.00;31.10
4308;DHT22;2167;53.448;9.984;2022-12-20T04:31:31;9.00;31.00
4308;DHT22;2167;53.448;9.984;2022-12-20T04:33:58;9.00;31.10
4308;DHT22;2167;53.448;9.984;2022-12-20T04:36:24;9.00;31.00
4308;DHT22;2167;53.448;9.984;2022-12-20T04:38:49;9.00;31.30
4308;DHT22;2167;53.448;9.984;2022-12-20T04:41:15;9.00;31.40
4308;DHT22;2167;53.448;9.984;2022-12-20T04:43:49;9.00;31.20
4308;DHT22;2167;53.448;9.984;2022-12-20T04:46:15;9.10;31.20
4308;DHT22;2167;53.448;9.984;2022-12-20T04:48:41;9.10;31.20
4308;DHT22;2167;53.448;9.984;2022-12-20T04:51:06;9.10;31.10
4308;DHT22;2167;53.448;9.984;2022-12-20T04:53:32;9.10;31.50
4308;DHT22;2167;53.448;9.984;2022-12-20T04:56:25;9.10;32.00
4308;DHT22;2167;53.448;9.984;2022-12-20T04:58:52;9.10;32.80
4308;DHT22;2167;53.448;9.984;2022-12-20T05:01:18;9.10;33.50
4308;DHT22;2167;53.448;9.984;2022-12-20T05:03:45;9.10;34.10
4308;DHT22;2167;53.448;9.984;2022-12-20T05:06:10;9.10;34.60
4308;DHT22;2167;53.448;9.984;2022-12-20T05:08:37;9.10;35.00
4308;DHT22;2167;53.448;9.984;2022-12-20T05:11:03;9.10;35.20
4308;DHT22;2167;53.448;9.984;2022-12-20T05:13:30;9.10;35.60
4308;DHT22;2167;53.448;9.984;2022-12-20T05:15:56;9.10;35.90
4308;DHT22;2167;53.448;9.984;2022-12-20T05:18:23;9.10;36.30
4308;DHT22;2167;53.448;9.984;2022-12-20T05:20:50;9.10;36.50
4308;DHT22;2167;53.448;9.984;2022-12-20T05:23:36;9.00;36.60
4308;DHT22;2167;53.448;9.984;2022-12-20T05:26:21;9.00;37.30
4308;DHT22;2167;53.448;9.984;2022-12-20T05:28:50;9.10;37.50
4308;DHT22;2167;53.448;9.984;2022-12-20T05:31:16;9.10;37.30
4308;DHT22;2167;53.448;9.984;2022-12-20T05:33:42;9.10;37.30
4308;DHT22;2167;53.448;9.984;2022-12-20T05:36:07;9.10;37.20
4308;DHT22;2167;53.448;9.984;2022-12-20T05:38:33;9.10;37.20
4308;DHT22;2167;53.448;9.984;2022-12-20T05:40:59;9.10;37.30
4308;DHT22;2167;53.448;9.984;2022-12-20T05:43:24;9.10;37.30
4308;DHT22;2167;53.448;9.984;2022-12-20T05:45:51;9.10;37.30
4308;DHT22;2167;53.448;9.984;2022-12-20T05:48:18;9.10;37.60
4308;DHT22;2167;53.448;9.984;2022-12-20T05:50:45;9.10;37.70
4308;DHT22;2167;53.448;9.984;2022-12-20T05:53:12;9.10;37.80
4308;DHT22;2167;53.448;9.984;2022-12-20T05:55:46;9.10;38.00
4308;DHT22;2167;53.448;9.984;2022-12-20T05:58:12;9.10;38.50
4308;DHT22;2167;53.448;9.984;2022-12-20T06:00:39;9.10;39.10
4308;DHT22;2167;53.448;9.984;2022-12-20T06:03:05;9.10;40.20
4308;DHT22;2167;53.448;9.984;2022-12-20T06:05:30;9.10;40.90
4308;DHT22;2167;53.448;9.984;2022-12-20T06:07:56;9.10;41.80
4308;DHT22;2167;53.448;9.984;2022-12-20T06:10:23;9.20;42.60
4308;DHT22;2167;53.448;9.984;2022-12-20T06:12:49;9.20;43.00
4308;DHT22;2167;53.448;9.984;2022-12-20T06:15:14;9.20;43.10
4308;DHT22;2167;53.448;9.984;2022-12-20T06:17:40;9.20;43.40
4308;DHT22;2167;53.448;9.984;2022-12-20T06:20:07;9.20;43.60
4308;DHT22;2167;53.448;9.984;2022-12-20T06:22:33;9.20;43.80
4308;DHT22;2167;53.448;9.984;2022-12-20T06:25:00;9.20;43.80
4308;DHT22;2167;53.448;9.984;2022-12-20T06:27:26;9.20;43.80
4308;DHT22;2167;53.448;9.984;2022-12-20T06:29:51;9.20;43.90
4308;DHT22;2167;53.448;9.984;2022-12-20T06:32:19;9.30;43.80
4308;DHT22;2167;53.448;9.984;2022-12-20T06:34:45;9.20;43.60
4308;DHT22;2167;53.448;9.984;2022-12-20T06:37:11;9.20;43.50
4308;DHT22;2167;53.448;9.984;2022-12-20T06:39:36;9.20;43.30
4308;DHT22;2167;53.448;9.984;2022-12-20T06:42:02;9.20;43.30
4308;DHT22;2167;53.448;9.984;2022-12-20T06:44:28;9.20;43.20
4308;DHT22;2167;53.448;9.984;2022-12-20T06:46:53;9.20;43.20
4308;DHT22;2167;53.448;9.984;2022-12-20T06:49:19;9.20;43.40
4308;DHT22;2167;53.448;9.984;2022-12-20T06:51:46;9.10;43.50
4308;DHT22;2167;53.448;9.984;2022-12-20T06:54:12;9.20;43.50
4308;DHT22;2167;53.448;9.984;2022-12-20T06:56:37;9.10;43.70
4308;DHT22;2167;53.448;9.984;2022-12-20T06:59:04;9.10;43.90
4308;DHT22;2167;53.448;9.984;2022-12-20T07:01:30;9.10;44.20
4308;DHT22;2167;53.448;9.984;2022-12-20T07:03:55;9.10;44.20
4308;DHT22;2167;53.448;9.984;2022-12-20T07:06:21;9.10;44.20
4308;DHT22;2167;53.448;9.984;2022-12-20T07:08:46;9.20;44.30
4308;DHT22;2167;53.448;9.984;2022-12-20T07:11:13;9.20;44.00
4308;DHT22;2167;53.448;9.984;2022-12-20T07:13:38;9.10;44.20
4308;DHT22;2167;53.448;9.984;2022-12-20T07:16:04;9.10;44.50
4308;DHT22;2167;53.448;9.984;2022-12-20T07:18:31;9.00;44.70
4308;DHT22;2167;53.448;9.984;2022-12-20T07:21:04;9.00;45.00
4308;DHT22;2167;53.448;9.984;2022-12-20T07:23:30;9.00;45.20
4308;DHT22;2167;53.448;9.984;2022-12-20T07:25:57;8.90;45.50
4308;DHT22;2167;53.448;9.984;2022-12-20T07:28:24;9.00;45.70
4308;DHT22;2167;53.448;9.984;2022-12-20T07:30:50;8.90;45.70
4308;DHT22;2167;53.448;9.984;2022-12-20T07:33:16;9.00;45.70
4308;DHT22;2167;53.448;9.984;2022-12-20T07:35:42;9.10;45.30
4308;DHT22;2167;53.448;9.984;2022-12-20T07:38:10;9.10;45.00
4308;DHT22;2167;53.448;9.984;2022-12-20T07:40:39;9.00;44.70
4308;DHT22;2167;53.448;9.984;2022-12-20T07:43:07;9.00;44.60
4308;DHT22;2167;53.448;9.984;2022-12-20T07:45:33;9.10;44.60
4308;DHT22;2167;53.448;9.984;2022-12-20T07:47:59;9.00;44.40
4308;DHT22;2167;53.448;9.984;2022-12-20T07:50:26;9.00;44.40
4308;DHT22;2167;53.448;9.984;2022-12-20T07:52:52;9.00;44.20
4308;DHT22;2167;53.448;9.984;2022-12-20T07:55:19;9.00;44.30
4308;DHT22;2167;53.448;9.984;2022-12-20T07:57:52;9.00;44.20
4308;DHT22;2167;53.448;9.984;2022-12-20T08:00:19;9.00;44.20
4308;DHT22;2167;53.448;9.984;2022-12-20T08:03:12;9.00;44.20
4308;DHT22;2167;53.448;9.984;2022-12-20T08:05:45;9.00;44.10
4308;DHT22;2167;53.448;9.984;2022-12-20T08:08:11;8.90;44.20
4308;DHT22;2167;53.448;9.984;2022-12-20T08:10:37;9.00;44.00
4308;DHT22;2167;53.448;9.984;2022-12-20T08:13:04;9.00;43.90
4308;DHT22;2167;53.448;9.984;2022-12-20T08:15:30;8.90;43.80
4308;DHT22;2167;53.448;9.984;2022-12-20T08:17:57;9.00;43.50
4308;DHT22;2167;53.448;9.984;2022-12-20T08:20:23;8.90;43.30
4308;DHT22;2167;53.448;9.984;2022-12-20T08:22:48;8.90;43.20
4308;DHT22;2167;53.448;9.984;2022-12-20T08:25:14;9.00;43.10
4308;DHT22;2167;53.448;9.984;2022-12-20T08:27:40;9.00;42.70
4308;DHT22;2167;53.448;9.984;2022-12-20T08:30:06;8.90;42.60
4308;DHT22;2167;53.448;9.984;2022-12-20T08:32:33;8.90;42.40
4308;DHT22;2167;53.448;9.984;2022-12-20T08:34:59;8.90;42.40
4308;DHT22;2167;53.448;9.984;2022-12-20T08:37:24;8.90;42.10
4308;DHT22;2167;53.448;9.984;2022-12-20T08:39:50;8.90;42.00
4308;DHT22;2167;53.448;9.984;2022-12-20T08:42:16;9.00;41.70
4308;DHT22;2167;53.448;9.984;2022-12-20T08:44:42;8.90;41.40
4308;DHT22;2167;53.448;9.984;2022-12-20T08:47:09;8.90;41.20
4308;DHT22;2167;53.448;9.984;2022-12-20T08:49:35;8.90;41.10
4308;DHT22;2167;53.448;9.984;2022-12-20T08:52:01;9.00;41.10
4308;DHT22;2167;53.448;9.984;2022-12-20T08:54:26;9.00;41.10
4308;DHT22;2167;53.448;9.984;2022-12-20T08:56:52;9.00;41.00
4308;DHT22;2167;53.448;9.984;2022-12-20T08:59:18;9.10;41.20
4308;DHT22;2167;53.448;9.984;2022-12-20T09:01:43;9.10;40.80
4308;DHT22;2167;53.448;9.984;2022-12-20T09:04:10;9.20;40.30
4308;DHT22;2167;53.448;9.984;2022-12-20T09:06:36;9.20;39.80
4308;DHT22;2167;53.448;9.984;2022-12-20T09:09:03;9.20;39.60
4308;DHT22;2167;53.448;9.984;2022-12-20T09:11:28;9.30;39.50
4308;DHT22;2167;53.448;9.984;2022-12-20T09:13:57;9.30;39.50
4308;DHT22;2167;53.448;9.984;2022-12-20T09:16:25;9.30;39.40
4308;DHT22;2167;53.448;9.984;2022-12-20T09:18:54;9.40;39.00
4308;DHT22;2167;53.448;9.984;2022-12-20T09:21:20;9.40;39.00
4308;DHT22;2167;53.448;9.984;2022-12-20T09:23:49;9.50;38.40
4308;DHT22;2167;53.448;9.984;2022-12-20T09:26:18;9.60;37.50
4308;DHT22;2167;53.448;9.984;2022-12-20T09:28:44;9.60;36.90
4308;DHT22;2167;53.448;9.984;2022-12-20T09:31:22;9.60;36.90
4308;DHT22;2167;53.448;9.984;2022-12-20T09:33:48;9.60;37.10
4308;DHT22;2167;53.448;9.984;2022-12-20T09:36:17;9.60;36.90
4308;DHT22;2167;53.448;9.984;2022-12-20T09:38:47;9.60;37.00
4308;DHT22;2167;53.448;9.984;2022-12-20T09:43:56;9.70;37.00
4308;DHT22;2167;53.448;9.984;2022-12-20T09:46:23;9.70;36.40
4308;DHT22;2167;53.448;9.984;2022-12-20T09:48:50;9.70;36.40
4308;DHT22;2167;53.448;9.984;2022-12-20T09:54:21;9.80;36.60
4308;DHT22;2167;53.448;9.984;2022-12-20T09:57:00;9.70;36.70
4308;DHT22;2167;53.448;9.984;2022-12-20T09:59:29;9.80;36.90
4308;DHT22;2167;53.448;9.984;2022-12-20T10:01:57;9.80;36.90
4308;DHT22;2167;53.448;9.984;2022-12-20T10:04:26;9.80;37.30
4308;DHT22;2167;53.448;9.984;2022-12-20T10:15:22;10.00;37.10
4308;DHT22;2167;53.448;9.984;2022-12-20T10:23:02;10.10;36.90
4308;DHT22;2167;53.448;9.984;2022-12-20T10:25:32;10.10;37.20
4308;DHT22;2167;53.448;9.984;2022-12-20T10:28:01;10.10;36.30
4308;DHT22;2167;53.448;9.984;2022-12-20T10:30:31;10.20;36.00
4308;DHT22;2167;53.448;9.984;2022-12-20T10:32:57;10.20;35.20
4308;DHT22;2167;53.448;9.984;2022-12-20T10:35:27;10.20;34.80
4308;DHT22;2167;53.448;9.984;2022-12-20T10:38:08;10.20;34.00
4308;DHT22;2167;53.448;9.984;2022-12-20T10:41:00;10.30;33.80
4308;DHT22;2167;53.448;9.984;2022-12-20T10:43:27;10.30;33.50
4308;DHT22;2167;53.448;9.984;2022-12-20T10:46:03;10.30;33.70
4308;DHT22;2167;53.448;9.984;2022-12-20T10:48:38;10.30;34.00
4308;DHT22;2167;53.448;9.984;2022-12-20T11:01:25;10.50;32.50
4308;DHT22;2167;53.448;9.984;2022-12-20T11:06:43;10.60;31.30
4308;DHT22;2167;53.448;9.984;2022-12-20T11:12:08;10.70;29.60
4308;DHT22;2167;53.448;9.984;2022-12-20T11:14:37;10.70;29.30
4308;DHT22;2167;53.448;9.984;2022-12-20T11:17:19;10.70;29.20
4308;DHT22;2167;53.448;9.984;2022-12-20T11:22:53;10.80;27.90
4308;DHT22;2167;53.448;9.984;2022-12-20T11:25:35;10.80;28.10
4308;DHT22;2167;53.448;9.984;2022-12-20T11:28:31;10.90;27.70
4308;DHT22;2167;53.448;9.984;2022-12-20T11:34:30;10.80;27.50
4308;DHT22;2167;53.448;9.984;2022-12-20T11:37:18;10.90;27.30
4308;DHT22;2167;53.448;9.984;2022-12-20T11:43:09;11.00;26.30
4308;DHT22;2167;53.448;9.984;2022-12-20T11:51:46;11.20;24.90
4308;DHT22;2167;53.448;9.984;2022-12-20T11:54:22;11.10;25.30
4308;DHT22;2167;53.448;9.984;2022-12-20T11:56:54;11.20;25.00
4308;DHT22;2167;53.448;9.984;2022-12-20T11:59:39;11.20;24.80
4308;DHT22;2167;53.448;9.984;2022-12-20T12:02:13;11.20;23.50
4308;DHT22;2167;53.448;9.984;2022-12-20T12:05:06;11.20;24.10
4308;DHT22;2167;53.448;9.984;2022-12-20T12:07:42;11.30;23.30
4308;DHT22;2167;53.448;9.984;2022-12-20T12:10:23;11.30;23.10
4308;DHT22;2167;53.448;9.984;2022-12-20T12:13:14;11.20;22.90
4308;DHT22;2167;53.448;9.984;2022-12-20T12:16:13;11.30;23.10
4308;DHT22;2167;53.448;9.984;2022-12-20T12:45:27;11.00;27.70
4308;DHT22;2167;53.448;9.984;2022-12-20T12:51:03;10.90;29.30
4308;DHT22;2167;53.448;9.984;2022-12-20T13:02:21;10.80;32.90
4308;DHT22;2167;53.448;9.984;2022-12-20T13:10:04;10.70;34.30
4308;DHT22;2167;53.448;9.984;2022-12-20T13:17:52;10.80;33.30
4308;DHT22;2167;53.448;9.984;2022-12-20T13:20:26;10.80;32.30
4308;DHT22;2167;53.448;9.984;2022-12-20T13:33:48;10.70;31.30
4308;DHT22;2167;53.448;9.984;2022-12-20T13:36:31;10.70;31.60
4308;DHT22;2167;53.448;9.984;2022-12-20T13:41:47;10.60;31.50
4308;DHT22;2167;53.448;9.984;2022-12-20T13:46:53;10.50;32.20
4308;DHT22;2167;53.448;9.984;2022-12-20T13:49:33;10.50;32.60
4308;DHT22;2167;53.448;9.984;2022-12-20T13:54:46;10.40;34.00
4308;DHT22;2167;53.448;9.984;2022-12-20T13:57:16;10.40;35.00
4308;DHT22;2167;53.448;9.984;2022-12-20T13:59:46;10.40;35.00
4308;DHT22;2167;53.448;9.984;2022-12-20T14:02:35;10.30;35.40
4308;DHT22;2167;53.448;9.984;2022-12-20T14:05:31;10.30;36.20
4308;DHT22;2167;53.448;9.984;2022-12-20T14:08:01;10.30;36.20
4308;DHT22;2167;53.448;9.984;2022-12-20T14:10:29;10.20;36.70
4308;DHT22;2167;53.448;9.984;2022-12-20T14:12:57;10.20;37.10
4308;DHT22;2167;53.448;9.984;2022-12-20T14:15:33;10.20;37.40
4308;DHT22;2167;53.448;9.984;2022-12-20T14:18:20;10.20;37.70
4308;DHT22;2167;53.448;9.984;2022-12-20T14:20:49;10.10;38.00
4308;DHT22;2167;53.448;9.984;2022-12-20T14:24:02;10.10;38.40
4308;DHT22;2167;53.448;9.984;2022-12-20T14:26:14;10.10;38.50
4308;DHT22;2167;53.448;9.984;2022-12-20T14:28:43;10.10;38.80
4308;DHT22;2167;53.448;9.984;2022-12-20T14:31:43;10.10;38.80
4308;DHT22;2167;53.448;9.984;2022-12-20T14:36:43;10.10;38.80
4308;DHT22;2167;53.448;9.984;2022-12-20T14:42:13;10.00;38.60
4308;DHT22;2167;53.448;9.984;2022-12-20T14:44:38;10.00;38.80
4308;DHT22;2167;53.448;9.984;2022-12-20T14:47:20;10.00;38.80
4308;DHT22;2167;53.448;9.984;2022-12-20T14:49:59;9.90;39.10
4308;DHT22;2167;53.448;9.984;2022-12-20T14:52:33;9.90;39.10
4308;DHT22;2167;53.448;9.984;2022-12-20T14:55:04;9.90;39.30
4308;DHT22;2167;53.448;9.984;2022-12-20T15:05:35;9.70;40.20
4308;DHT22;2167;53.448;9.984;2022-12-20T15:08:30;9.70;40.50
4308;DHT22;2167;53.448;9.984;2022-12-20T15:13:39;9.60;40.80
4308;DHT22;2167;53.448;9.984;2022-12-20T15:18:39;9.70;41.30
4308;DHT22;2167;53.448;9.984;2022-12-20T15:21:12;9.70;41.50
4308;DHT22;2167;53.448;9.984;2022-12-20T15:23:43;9.70;41.40
4308;DHT22;2167;53.448;9.984;2022-12-20T15:26:17;9.70;41.50
4308;DHT22;2167;53.448;9.984;2022-12-20T15:28:43;9.70;41.30
4308;DHT22;2167;53.448;9.984;2022-12-20T15:31:14;9.70;40.80
4308;DHT22;2167;53.448;9.984;2022-12-20T15:33:42;9.80;40.40
4308;DHT22;2167;53.448;9.984;2022-12-20T15:36:24;9.70;40.40
4308;DHT22;2167;53.448;9.984;2022-12-20T15:38:54;9.70;40.40
4308;DHT22;2167;53.448;9.984;2022-12-20T15:41:24;9.70;40.50
4308;DHT22;2167;53.448;9.984;2022-12-20T15:43:55;9.80;40.60
4308;DHT22;2167;53.448;9.984;2022-12-20T15:46:21;9.80;40.20
4308;DHT22;2167;53.448;9.984;2022-12-20T15:48:47;9.80;39.70
4308;DHT22;2167;53.448;9.984;2022-12-20T15:51:32;9.80;39.70
4308;DHT22;2167;53.448;9.984;2022-12-20T15:54:00;9.90;39.60
4308;DHT22;2167;53.448;9.984;2022-12-20T15:56:27;9.80;39.60
4308;DHT22;2167;53.448;9.984;2022-12-20T15:58:53;9.80;39.60
4308;DHT22;2167;53.448;9.984;2022-12-20T16:01:22;9.80;39.50
4308;DHT22;2167;53.448;9.984;2022-12-20T16:03:49;9.80;39.60
4308;DHT22;2167;53.448;9.984;2022-12-20T16:06:15;9.80;39.50
4308;DHT22;2167;53.448;9.984;2022-12-20T16:08:41;9.80;39.70
4308;DHT22;2167;53.448;9.984;2022-12-20T16:11:20;9.80;39.90
4308;DHT22;2167;53.448;9.984;2022-12-20T16:13:46;9.70;39.70
4308;DHT22;2167;53.448;9.984;2022-12-20T16:16:34;9.70;39.60
4308;DHT22;2167;53.448;9.984;2022-12-20T16:19:01;9.70;39.50
4308;DHT22;2167;53.448;9.984;2022-12-20T16:21:33;9.70;39.40
4308;DHT22;2167;53.448;9.984;2022-12-20T16:23:59;9.70;39.50
4308;DHT22;2167;53.448;9.984;2022-12-20T16:26:25;9.70;39.50
4308;DHT22;2167;53.448;9.984;2022-12-20T16:28:52;9.70;39.60
4308;DHT22;2167;53.448;9.984;2022-12-20T16:31:32;9.70;39.90
4308;DHT22;2167;53.448;9.984;2022-12-20T16:34:00;9.70;40.00
4308;DHT22;2167;53.448;9.984;2022-12-20T16:36:31;9.80;40.20
4308;DHT22;2167;53.448;9.984;2022-12-20T16:38:57;9.80;40.10
4308;DHT22;2167;53.448;9.984;2022-12-20T16:41:25;9.80;40.00
4308;DHT22;2167;53.448;9.984;2022-12-20T16:43:56;9.70;40.00
4308;DHT22;2167;53.448;9.984;2022-12-20T16:46:24;9.70;39.90
4308;DHT22;2167;53.448;9.984;2022-12-20T16:48:54;9.80;40.10
4308;DHT22;2167;53.448;9.984;2022-12-20T16:51:39;9.80;39.90
4308;DHT22;2167;53.448;9.984;2022-12-20T16:54:12;9.80;39.90
4308;DHT22;2167;53.448;9.984;2022-12-20T16:56:40;9.80;39.70
4308;DHT22;2167;53.448;9.984;2022-12-20T16:59:11;9.80;39.80
4308;DHT22;2167;53.448;9.984;2022-12-20T17:01:38;9.80;39.60
4308;DHT22;2167;53.448;9.984;2022-12-20T17:04:05;9.90;39.60
4308;DHT22;2167;53.448;9.984;2022-12-20T17:06:32;9.90;39.60
4308;DHT22;2167;53.448;9.984;2022-12-20T17:09:01;9.90;39.40
4308;DHT22;2167;53.448;9.984;2022-12-20T17:11:29;10.00;39.40
4308;DHT22;2167;53.448;9.984;2022-12-20T17:13:55;10.00;39.30
4308;DHT22;2167;53.448;9.984;2022-12-20T17:16:23;10.00;39.20
4308;DHT22;2167;53.448;9.984;2022-12-20T17:18:51;10.10;39.50
4308;DHT22;2167;53.448;9.984;2022-12-20T17:23:52;10.20;38.40
4308;DHT22;2167;53.448;9.984;2022-12-20T17:26:21;10.20;38.70
4308;DHT22;2167;53.448;9.984;2022-12-20T17:28:48;10.30;38.10
4308;DHT22;2167;53.448;9.984;2022-12-20T17:31:23;10.20;38.00
4308;DHT22;2167;53.448;9.984;2022-12-20T17:33:50;10.30;38.00
4308;DHT22;2167;53.448;9.984;2022-12-20T17:36:15;10.30;37.90
4308;DHT22;2167;53.448;9.984;2022-12-20T17:38:41;10.40;37.80
4308;DHT22;2167;53.448;9.984;2022-12-20T17:43:46;10.40;37.90
4308;DHT22;2167;53.448;9.984;2022-12-20T17:46:11;10.40;38.00
4308;DHT22;2167;53.448;9.984;2022-12-20T17:48:38;10.30;38.00
4308;DHT22;2167;53.448;9.984;2022-12-20T17:51:15;10.40;37.90
4308;DHT22;2167;53.448;9.984;2022-12-20T17:53:45;10.40;37.80
4308;DHT22;2167;53.448;9.984;2022-12-20T17:56:13;10.40;37.70
4308;DHT22;2167;53.448;9.984;2022-12-20T17:58:39;10.40;37.50
4308;DHT22;2167;53.448;9.984;2022-12-20T18:01:05;10.40;37.60
4308;DHT22;2167;53.448;9.984;2022-12-20T18:03:31;10.40;37.60
4308;DHT22;2167;53.448;9.984;2022-12-20T18:05:56;10.40;37.30
4308;DHT22;2167;53.448;9.984;2022-12-20T18:08:22;10.40;37.40
4308;DHT22;2167;53.448;9.984;2022-12-20T18:10:48;10.40;37.40
4308;DHT22;2167;53.448;9.984;2022-12-20T18:13:13;10.40;37.30
4308;DHT22;2167;53.448;9.984;2022-12-20T18:15:39;10.40;37.60
4308;DHT22;2167;53.448;9.984;2022-12-20T18:18:05;10.30;37.40
4308;DHT22;2167;53.448;9.984;2022-12-20T18:20:30;10.30;37.50
4308;DHT22;2167;53.448;9.984;2022-12-20T18:22:56;10.40;37.10
4308;DHT22;2167;53.448;9.984;2022-12-20T18:25:21;10.30;37.30
4308;DHT22;2167;53.448;9.984;2022-12-20T18:27:47;10.40;37.10
4308;DHT22;2167;53.448;9.984;2022-12-20T18:30:13;10.40;36.90
4308;DHT22;2167;53.448;9.984;2022-12-20T18:32:40;10.40;36.90
4308;DHT22;2167;53.448;9.984;2022-12-20T18:35:07;10.30;36.80
4308;DHT22;2167;53.448;9.984;2022-12-20T18:37:33;10.30;36.80
4308;DHT22;2167;53.448;9.984;2022-12-20T18:39:59;10.30;36.90
4308;DHT22;2167;53.448;9.984;2022-12-20T18:42:24;10.30;37.60
4308;DHT22;2167;53.448;9.984;2022-12-20T18:44:50;10.30;36.90
4308;DHT22;2167;53.448;9.984;2022-12-20T18:47:16;10.30;37.20
4308;DHT22;2167;53.448;9.984;2022-12-20T18:49:41;10.30;37.30
4308;DHT22;2167;53.448;9.984;2022-12-20T18:52:07;10.30;37.30
4308;DHT22;2167;53.448;9.984;2022-12-20T18:54:33;10.30;37.20
4308;DHT22;2167;53.448;9.984;2022-12-20T18:56:58;10.30;37.00